createdAt,value
2023-03-30T00:00:58.582Z,4.50
2023-03-30T00:03:27.487Z,4.50
2023-03-30T00:05:57.445Z,4.50
2023-03-30T00:08:28.321Z,4.40
2023-03-30T00:11:01.983Z,4.40
2023-03-30T00:13:32.614Z,4.40
2023-03-30T00:16:01.119Z,4.40
2023-03-30T00:18:30.608Z,4.40
2023-03-30T00:20:59.393Z,4.40
2023-03-30T00:23:27.700Z,4.40
2023-03-30T00:25:55.864Z,4.40
2023-03-30T00:28:25.122Z,4.40
2023-03-30T00:30:54.754Z,4.40
2023-03-30T00:33:33.603Z,4.40
2023-03-30T00:36:10.134Z,4.50
2023-03-30T00:38:38.241Z,4.50
2023-03-30T00:41:07.134Z,4.50
2023-03-30T00:43:35.408Z,4.50
2023-03-30T00:46:04.771Z,4.50
2023-03-30T00:48:36.293Z,4.50
2023-03-30T00:51:09.500Z,4.60
2023-03-30T00:53:42.065Z,4.60
2023-03-30T00:56:12.881Z,4.60
2023-03-30T00:58:42.213Z,4.60
2023-03-30T01:01:14.106Z,4.60
2023-03-30T01:03:46.642Z,4.60
2023-03-30T01:06:18.037Z,4.60
2023-03-30T01:08:46.516Z,4.60
2023-03-30T01:11:15.013Z,4.70
2023-03-30T01:13:45.153Z,4.70
2023-03-30T01:16:23.772Z,4.70
2023-03-30T01:18:58.326Z,4.70
2023-03-30T01:22:00.303Z,4.70
2023-03-30T01:24:53.621Z,4.70
2023-03-30T01:27:46.336Z,4.70
2023-03-30T01:30:38.855Z,4.70
2023-03-30T01:33:32.090Z,4.70
2023-03-30T01:36:23.739Z,4.70
2023-03-30T01:39:23.915Z,4.70
2023-03-30T01:41:59.392Z,4.70
2023-03-30T01:44:35.626Z,4.70
2023-03-30T01:47:10.559Z,4.70
2023-03-30T01:49:43.021Z,4.70
2023-03-30T01:52:19.381Z,4.70
2023-03-30T01:54:51.053Z,4.70
2023-03-30T01:57:21.909Z,4.70
2023-03-30T01:59:56.237Z,4.70
2023-03-30T02:02:29.708Z,4.70
2023-03-30T02:05:01.755Z,4.60
2023-03-30T02:07:33.034Z,4.60
2023-03-30T02:10:05.648Z,4.60
2023-03-30T02:12:37.088Z,4.60
2023-03-30T02:15:10.382Z,4.60
2023-03-30T02:17:38.763Z,4.60
2023-03-30T02:20:10.733Z,4.50
2023-03-30T02:22:39.522Z,4.60
2023-03-30T02:25:10.200Z,4.50
2023-03-30T02:27:38.605Z,4.50
2023-03-30T02:30:08.997Z,4.50
2023-03-30T02:32:42.355Z,4.50
2023-03-30T02:35:27.822Z,4.50
2023-03-30T02:38:23.528Z,4.50
2023-03-30T02:41:03.411Z,4.50
2023-03-30T02:43:39.092Z,4.40
2023-03-30T02:46:22.048Z,4.50
2023-03-30T02:49:02.292Z,4.40
2023-03-30T02:51:41.122Z,4.40
2023-03-30T02:54:39.500Z,4.50
2023-03-30T02:57:31.160Z,4.40
2023-03-30T03:00:24.378Z,4.40
2023-03-30T03:02:57.400Z,4.40
2023-03-30T03:05:32.525Z,4.40
2023-03-30T03:08:07.161Z,4.40
2023-03-30T03:10:36.872Z,4.40
2023-03-30T03:13:08.216Z,4.40
2023-03-30T03:15:38.027Z,4.40
2023-03-30T03:18:09.024Z,4.40
2023-03-30T03:20:37.237Z,4.40
2023-03-30T03:23:06.132Z,4.40
2023-03-30T03:25:42.442Z,4.40
2023-03-30T03:28:13.010Z,4.40
2023-03-30T03:30:44.516Z,4.40
2023-03-30T03:33:20.180Z,4.40
2023-03-30T03:36:10.206Z,4.40
2023-03-30T03:38:42.056Z,4.40
2023-03-30T03:41:10.535Z,4.40
2023-03-30T03:43:41.595Z,4.40
2023-03-30T03:46:09.928Z,4.50
2023-03-30T03:48:38.016Z,4.50
2023-03-30T03:51:06.517Z,4.50
2023-03-30T03:53:36.753Z,4.50
2023-03-30T03:56:08.952Z,4.50
2023-03-30T03:58:37.231Z,4.50
2023-03-30T04:01:07.172Z,4.50
2023-03-30T04:03:35.568Z,4.50
2023-03-30T04:06:03.559Z,4.50
2023-03-30T04:08:32.997Z,4.50
2023-03-30T04:11:12.336Z,4.50
2023-03-30T04:14:06.464Z,4.50
2023-03-30T04:16:44.755Z,4.50
2023-03-30T04:19:32.152Z,4.50
2023-03-30T04:22:19.780Z,4.50
2023-03-30T04:25:08.598Z,4.50
2023-03-30T04:27:58.178Z,4.50
2023-03-30T04:31:06.738Z,4.50
2023-03-30T04:34:14.829Z,4.60
2023-03-30T04:37:18.034Z,4.60
2023-03-30T04:40:07.977Z,4.60
2023-03-30T04:42:50.879Z,4.60
2023-03-30T04:45:42.168Z,4.70
2023-03-30T04:48:28.699Z,4.70
2023-03-30T04:51:13.065Z,4.80
2023-03-30T04:53:43.738Z,4.80
2023-03-30T04:56:40.860Z,4.90
2023-03-30T04:59:24.250Z,4.90
2023-03-30T05:02:11.876Z,5.00
2023-03-30T05:05:06.438Z,5.10
2023-03-30T05:07:47.756Z,5.10
2023-03-30T05:10:36.222Z,5.20
2023-03-30T05:13:22.741Z,5.20
2023-03-30T05:16:04.352Z,5.30
2023-03-30T05:18:51.799Z,5.30
2023-03-30T05:21:52.345Z,5.30
2023-03-30T05:24:40.657Z,5.30
2023-03-30T05:27:44.192Z,5.40
2023-03-30T05:30:29.073Z,5.40
2023-03-30T05:33:15.592Z,5.40
2023-03-30T05:36:13.349Z,5.40
2023-03-30T05:38:49.876Z,5.50
2023-03-30T05:41:54.437Z,5.50
2023-03-30T05:44:42.638Z,5.60
2023-03-30T05:47:20.836Z,5.60
2023-03-30T05:50:21.898Z,5.70
2023-03-30T05:52:54.429Z,5.80
2023-03-30T05:55:27.677Z,5.90
2023-03-30T05:58:16.492Z,5.90
2023-03-30T06:00:54.174Z,6.00
2023-03-30T06:03:33.241Z,6.10
2023-03-30T06:06:01.957Z,6.20
2023-03-30T06:08:32.429Z,6.30
2023-03-30T06:11:04.596Z,6.30
2023-03-30T06:13:45.296Z,6.40
2023-03-30T06:16:13.684Z,6.40
2023-03-30T06:18:41.749Z,6.40
2023-03-30T06:21:13.865Z,6.40
2023-03-30T06:23:53.596Z,6.40
2023-03-30T06:26:24.395Z,6.40
2023-03-30T06:28:54.600Z,6.50
2023-03-30T06:31:23.086Z,6.70
2023-03-30T06:33:58.597Z,6.80
2023-03-30T06:36:44.410Z,6.90
2023-03-30T06:39:15.191Z,7.10
2023-03-30T06:41:43.186Z,7.20
2023-03-30T06:44:28.213Z,7.20
2023-03-30T06:46:56.279Z,7.20
2023-03-30T06:49:24.302Z,7.30
2023-03-30T06:52:25.313Z,7.30
2023-03-30T06:54:53.377Z,7.40
2023-03-30T06:57:21.446Z,7.40
2023-03-30T06:59:51.056Z,7.40
2023-03-30T07:02:21.905Z,7.60
2023-03-30T07:05:09.113Z,7.60
2023-03-30T07:08:04.414Z,7.70
2023-03-30T07:10:33.278Z,7.70
2023-03-30T07:13:03.693Z,7.70
2023-03-30T07:15:34.578Z,7.60
2023-03-30T07:18:03.224Z,7.70
2023-03-30T07:20:31.586Z,7.50
2023-03-30T07:23:11.645Z,7.50
2023-03-30T07:25:41.302Z,7.50
2023-03-30T07:28:16.743Z,7.50
2023-03-30T07:30:47.877Z,7.60
2023-03-30T07:33:17.308Z,7.80
2023-03-30T07:35:46.877Z,7.90
2023-03-30T07:38:19.184Z,7.90
2023-03-30T07:40:52.627Z,7.90
2023-03-30T07:43:22.756Z,7.90
2023-03-30T07:45:52.564Z,7.90
2023-03-30T07:48:27.546Z,7.90
2023-03-30T07:51:01.712Z,7.80
2023-03-30T07:53:31.810Z,7.80
2023-03-30T07:56:02.462Z,7.90
2023-03-30T07:58:39.149Z,7.80
2023-03-30T08:01:09.543Z,7.80
2023-03-30T08:03:39.226Z,7.90
2023-03-30T08:06:07.811Z,7.90
2023-03-30T08:08:41.029Z,7.90
2023-03-30T08:11:11.116Z,8.00
2023-03-30T08:13:39.217Z,8.10
2023-03-30T08:16:09.972Z,8.20
2023-03-30T08:18:38.297Z,8.40
2023-03-30T08:21:06.949Z,8.60
2023-03-30T08:23:35.356Z,8.70
2023-03-30T08:26:03.433Z,8.80
2023-03-30T08:28:31.871Z,8.90
2023-03-30T08:31:04.890Z,8.80
2023-03-30T08:33:34.922Z,8.70
2023-03-30T08:36:03.086Z,8.70
2023-03-30T08:38:31.174Z,8.70
2023-03-30T08:41:00.087Z,8.70
2023-03-30T08:43:51.283Z,8.60
2023-03-30T08:46:22.134Z,8.60
2023-03-30T08:48:57.883Z,8.60
2023-03-30T08:51:29.203Z,8.60
2023-03-30T08:54:02.529Z,8.60
2023-03-30T08:56:36.586Z,8.70
2023-03-30T08:59:18.647Z,8.80
2023-03-30T09:01:53.142Z,8.90
2023-03-30T09:04:29.719Z,8.90
2023-03-30T09:07:02.429Z,8.90
2023-03-30T09:09:33.074Z,9.00
2023-03-30T09:12:06.633Z,8.90
2023-03-30T09:14:39.694Z,8.90
2023-03-30T09:17:13.530Z,8.90
2023-03-30T09:19:52.180Z,9.00
2023-03-30T09:22:21.936Z,9.00
2023-03-30T09:24:51.459Z,9.00
2023-03-30T09:27:25.293Z,9.10
2023-03-30T09:29:58.216Z,9.20
2023-03-30T09:32:32.463Z,9.30
2023-03-30T09:35:07.627Z,9.40
2023-03-30T09:37:37.073Z,9.40
2023-03-30T09:40:21.655Z,9.30
2023-03-30T09:43:00.244Z,9.30
2023-03-30T09:45:33.289Z,9.20
2023-03-30T09:48:05.832Z,9.30
2023-03-30T09:50:39.983Z,9.30
2023-03-30T09:53:19.555Z,9.40
2023-03-30T09:55:59.967Z,9.60
2023-03-30T09:58:30.350Z,9.80
2023-03-30T10:01:08.306Z,10.00
2023-03-30T10:03:36.751Z,10.30
2023-03-30T10:06:09.100Z,10.50
2023-03-30T10:08:43.050Z,10.70
2023-03-30T10:11:11.697Z,10.90
2023-03-30T10:13:45.471Z,11.50
2023-03-30T10:16:24.542Z,12.20
2023-03-30T10:18:55.639Z,12.60
2023-03-30T10:21:27.253Z,12.80
2023-03-30T10:24:04.539Z,12.80
2023-03-30T10:26:34.608Z,12.90
2023-03-30T10:29:05.096Z,13.10
2023-03-30T10:31:36.874Z,13.20
2023-03-30T10:34:08.685Z,13.30
2023-03-30T10:36:40.780Z,13.20
2023-03-30T10:39:13.564Z,13.10
2023-03-30T10:41:42.832Z,12.90
2023-03-30T10:44:23.342Z,12.80
2023-03-30T10:46:54.667Z,12.70
2023-03-30T10:49:38.226Z,13.00
2023-03-30T10:52:13.806Z,13.10
2023-03-30T10:54:46.105Z,13.50
2023-03-30T10:57:16.857Z,13.90
2023-03-30T10:59:59.351Z,14.50
2023-03-30T11:02:46.096Z,14.50
2023-03-30T11:05:16.975Z,14.30
2023-03-30T11:07:48.452Z,14.30
2023-03-30T11:10:20.563Z,14.30
2023-03-30T11:12:53.423Z,14.30
2023-03-30T11:15:27.628Z,14.20
2023-03-30T11:18:03.344Z,14.40
2023-03-30T11:20:34.692Z,14.20
2023-03-30T11:23:15.138Z,14.20
2023-03-30T11:25:58.062Z,14.00
2023-03-30T11:28:41.633Z,14.20
2023-03-30T11:31:17.816Z,14.30
2023-03-30T11:33:51.116Z,14.40
2023-03-30T11:36:24.835Z,14.40
2023-03-30T11:39:01.774Z,14.30
2023-03-30T11:41:37.666Z,14.50
2023-03-30T11:44:06.328Z,14.80
2023-03-30T11:46:42.107Z,15.40
2023-03-30T11:49:25.952Z,15.70
2023-03-30T11:52:17.002Z,16.20
2023-03-30T11:55:04.900Z,16.40
2023-03-30T11:57:41.235Z,15.70
2023-03-30T12:00:40.602Z,15.50
2023-03-30T12:03:30.794Z,15.40
2023-03-30T12:06:07.401Z,15.10
2023-03-30T12:08:59.438Z,15.00
2023-03-30T12:11:39.347Z,14.90
2023-03-30T12:14:21.695Z,15.20
2023-03-30T12:16:52.836Z,15.30
2023-03-30T12:19:27.128Z,15.60
2023-03-30T12:21:58.984Z,15.90
2023-03-30T12:24:34.186Z,16.10
2023-03-30T12:27:05.743Z,15.80
2023-03-30T12:30:02.479Z,15.90
2023-03-30T12:32:36.924Z,15.70
2023-03-30T12:35:47.671Z,15.30
2023-03-30T12:38:24.840Z,14.80
2023-03-30T12:41:05.857Z,14.70
2023-03-30T12:43:47.615Z,14.30
2023-03-30T12:46:26.306Z,14.10
2023-03-30T12:49:06.196Z,14.00
2023-03-30T12:51:45.952Z,13.90
2023-03-30T12:54:43.896Z,13.80
2023-03-30T12:57:24.616Z,13.80
2023-03-30T13:00:10.274Z,13.60
2023-03-30T13:02:59.077Z,13.60
2023-03-30T13:05:31.453Z,13.50
2023-03-30T13:08:06.136Z,13.40
2023-03-30T13:10:43.563Z,13.20
2023-03-30T13:13:24.832Z,13.20
2023-03-30T13:15:57.875Z,13.10
2023-03-30T13:18:53.652Z,13.10
2023-03-30T13:21:26.063Z,13.00
2023-03-30T13:24:05.365Z,12.90
2023-03-30T13:26:45.696Z,12.90
2023-03-30T13:29:17.078Z,12.90
2023-03-30T13:32:06.889Z,12.90
2023-03-30T13:35:03.677Z,12.90
2023-03-30T13:37:59.388Z,12.90
2023-03-30T13:40:51.406Z,13.00
2023-03-30T13:43:42.422Z,12.90
2023-03-30T13:46:19.939Z,13.00
2023-03-30T13:49:03.429Z,13.10
2023-03-30T13:51:32.777Z,13.20
2023-03-30T13:54:09.449Z,13.30
2023-03-30T13:56:40.689Z,13.30
2023-03-30T13:59:15.815Z,13.40
2023-03-30T14:01:48.678Z,13.60
2023-03-30T14:04:18.140Z,13.70
2023-03-30T14:06:53.251Z,13.90
2023-03-30T14:09:24.549Z,14.00
2023-03-30T14:11:54.581Z,14.10
2023-03-30T14:14:28.012Z,14.10
2023-03-30T14:16:59.689Z,14.20
2023-03-30T14:19:30.486Z,14.20
2023-03-30T14:22:02.298Z,14.30
2023-03-30T14:24:33.964Z,14.20
2023-03-30T14:27:10.019Z,14.20
2023-03-30T14:29:45.099Z,14.10
2023-03-30T14:32:15.937Z,14.00
2023-03-30T14:34:48.878Z,13.80
2023-03-30T14:37:19.629Z,13.70
2023-03-30T14:39:56.710Z,13.60
2023-03-30T14:42:28.662Z,13.40
2023-03-30T14:44:59.915Z,13.30
2023-03-30T14:47:29.635Z,13.20
2023-03-30T14:50:04.506Z,13.10
2023-03-30T14:52:41.196Z,13.00
2023-03-30T14:55:17.573Z,13.00
2023-03-30T14:57:47.706Z,12.90
2023-03-30T15:00:20.654Z,12.90
2023-03-30T15:02:52.978Z,12.70
2023-03-30T15:05:24.951Z,12.60
2023-03-30T15:07:54.209Z,12.40
2023-03-30T15:10:24.944Z,12.30
2023-03-30T15:12:56.015Z,12.10
2023-03-30T15:15:28.375Z,12.10
2023-03-30T15:17:57.465Z,12.00
2023-03-30T15:20:29.473Z,11.80
2023-03-30T15:22:58.121Z,11.80
2023-03-30T15:25:32.329Z,11.80
2023-03-30T15:28:04.073Z,11.70
2023-03-30T15:30:35.921Z,11.70
2023-03-30T15:33:05.745Z,11.60
2023-03-30T15:35:36.465Z,11.60
2023-03-30T15:38:14.390Z,11.60
2023-03-30T15:40:44.180Z,11.50
2023-03-30T15:43:13.703Z,11.50
2023-03-30T15:45:47.312Z,11.50
2023-03-30T15:48:17.713Z,11.40
2023-03-30T15:50:52.342Z,11.40
2023-03-30T15:53:28.744Z,11.40
2023-03-30T15:55:57.317Z,11.40
2023-03-30T15:58:29.341Z,11.30
2023-03-30T16:00:58.014Z,11.50
2023-03-30T16:03:42.013Z,11.40
2023-03-30T16:06:14.564Z,11.40
2023-03-30T16:08:44.462Z,11.40
2023-03-30T16:11:15.338Z,11.30
2023-03-30T16:13:44.296Z,11.40
2023-03-30T16:16:13.937Z,11.30
2023-03-30T16:18:42.825Z,11.40
2023-03-30T16:21:15.649Z,11.30
2023-03-30T16:23:43.583Z,11.30
2023-03-30T16:26:12.517Z,11.30
2023-03-30T16:28:42.728Z,11.30
2023-03-30T16:31:17.787Z,11.30
2023-03-30T16:33:45.911Z,11.30
2023-03-30T16:36:17.264Z,11.20
2023-03-30T16:38:47.873Z,11.20
2023-03-30T16:41:23.223Z,11.20
2023-03-30T16:43:51.855Z,11.20
2023-03-30T16:46:22.417Z,11.20
2023-03-30T16:48:52.182Z,11.20
2023-03-30T16:51:25.237Z,11.20
2023-03-30T16:53:54.286Z,11.20
2023-03-30T16:56:23.314Z,11.20
2023-03-30T16:58:51.521Z,11.10
2023-03-30T17:01:19.593Z,11.10
2023-03-30T17:03:47.865Z,11.10
2023-03-30T17:06:17.045Z,11.10
2023-03-30T17:08:46.481Z,11.10
2023-03-30T17:11:14.576Z,11.00
2023-03-30T17:13:43.217Z,11.00
2023-03-30T17:16:13.943Z,10.90
2023-03-30T17:18:42.112Z,10.90
2023-03-30T17:21:16.083Z,10.80
2023-03-30T17:23:47.652Z,10.90
2023-03-30T17:26:16.054Z,10.90
2023-03-30T17:28:44.589Z,10.80
2023-03-30T17:31:16.361Z,10.80
2023-03-30T17:33:44.795Z,10.70
2023-03-30T17:36:15.642Z,10.60
2023-03-30T17:38:43.940Z,10.60
2023-03-30T17:41:15.370Z,10.50
2023-03-30T17:43:44.374Z,10.60
2023-03-30T17:46:12.655Z,10.60
2023-03-30T17:48:41.089Z,10.70
2023-03-30T17:51:09.183Z,10.80
2023-03-30T17:53:37.489Z,10.70
2023-03-30T17:56:06.278Z,10.70
2023-03-30T17:58:37.384Z,10.70
2023-03-30T18:01:08.450Z,10.80
2023-03-30T18:03:38.345Z,10.80
2023-03-30T18:06:07.419Z,10.80
2023-03-30T18:08:36.213Z,10.80
2023-03-30T18:11:05.341Z,10.80
2023-03-30T18:13:35.003Z,10.70
2023-03-30T18:16:03.011Z,10.70
2023-03-30T18:18:32.662Z,10.70
2023-03-30T18:21:03.911Z,10.70
2023-03-30T18:23:34.547Z,10.70
2023-03-30T18:26:07.111Z,10.60
2023-03-30T18:28:40.536Z,10.60
2023-03-30T18:31:09.188Z,10.60
2023-03-30T18:33:40.198Z,10.60
2023-03-30T18:36:12.729Z,10.50
2023-03-30T18:38:41.550Z,10.50
2023-03-30T18:41:11.877Z,10.50
2023-03-30T18:43:41.229Z,10.50
2023-03-30T18:46:12.218Z,10.40
2023-03-30T18:48:40.327Z,10.40
2023-03-30T18:51:10.924Z,10.40
2023-03-30T18:53:39.028Z,10.40
2023-03-30T18:56:07.398Z,10.30
2023-03-30T18:58:41.610Z,10.30
2023-03-30T19:01:12.923Z,10.20
2023-03-30T19:03:41.775Z,10.20
2023-03-30T19:06:13.740Z,10.30
2023-03-30T19:08:43.411Z,10.10
2023-03-30T19:11:14.313Z,10.00
2023-03-30T19:13:42.202Z,10.00
2023-03-30T19:16:11.492Z,9.90
2023-03-30T19:18:39.950Z,9.90
2023-03-30T19:21:08.019Z,9.90
2023-03-30T19:23:36.156Z,9.90
2023-03-30T19:26:04.164Z,9.90
2023-03-30T19:28:33.249Z,9.90
2023-03-30T19:31:05.373Z,9.90
2023-03-30T19:33:34.921Z,9.80
2023-03-30T19:36:03.309Z,9.80
2023-03-30T19:38:31.338Z,9.80
2023-03-30T19:41:01.101Z,9.90
2023-03-30T19:43:29.216Z,9.80
2023-03-30T19:45:57.874Z,9.80
2023-03-30T19:48:27.297Z,9.90
2023-03-30T19:50:56.944Z,9.90
2023-03-30T19:53:24.940Z,9.90
2023-03-30T19:55:52.874Z,9.90
2023-03-30T19:58:20.891Z,9.90
2023-03-30T20:00:49.468Z,9.80
2023-03-30T20:03:17.615Z,9.90
2023-03-30T20:05:50.363Z,9.80
2023-03-30T20:08:24.402Z,9.80
2023-03-30T20:10:53.898Z,9.80
2023-03-30T20:13:23.904Z,9.80
2023-03-30T20:15:57.016Z,9.70
2023-03-30T20:18:25.235Z,9.80
2023-03-30T20:20:53.220Z,9.70
2023-03-30T20:23:22.497Z,9.70
2023-03-30T20:25:52.529Z,9.70
2023-03-30T20:28:20.516Z,9.60
2023-03-30T20:30:48.441Z,9.60
2023-03-30T20:33:16.419Z,9.60
2023-03-30T20:35:44.356Z,9.60
2023-03-30T20:38:12.308Z,9.60
2023-03-30T20:40:41.579Z,9.60
2023-03-30T20:43:10.679Z,9.60
2023-03-30T20:45:46.194Z,9.50
2023-03-30T20:48:25.901Z,9.50
2023-03-30T20:50:54.591Z,9.50
2023-03-30T20:53:22.965Z,9.50
2023-03-30T20:55:52.602Z,9.50
2023-03-30T20:58:22.215Z,9.50
2023-03-30T21:00:51.961Z,9.50
2023-03-30T21:03:20.296Z,9.50
2023-03-30T21:05:48.687Z,9.50
2023-03-30T21:08:16.644Z,9.50
2023-03-30T21:10:45.014Z,9.50
2023-03-30T21:13:15.332Z,9.50
2023-03-30T21:15:43.285Z,9.50
2023-03-30T21:18:11.252Z,9.50
2023-03-30T21:20:39.282Z,9.50
2023-03-30T21:23:07.289Z,9.50
2023-03-30T21:25:35.407Z,9.50
2023-03-30T21:28:03.379Z,9.50
2023-03-30T21:30:34.687Z,9.50
2023-03-30T21:33:02.688Z,9.60
2023-03-30T21:35:30.885Z,9.60
2023-03-30T21:37:58.944Z,9.60
2023-03-30T21:40:26.925Z,9.60
2023-03-30T21:42:54.893Z,9.60
2023-03-30T21:45:22.943Z,9.60
2023-03-30T21:47:52.232Z,9.60
2023-03-30T21:50:20.311Z,9.60
2023-03-30T21:52:48.313Z,9.70
2023-03-30T21:55:16.402Z,9.70
2023-03-30T21:57:44.291Z,9.70
2023-03-30T22:00:13.621Z,9.70
2023-03-30T22:02:41.640Z,9.70
2023-03-30T22:05:11.204Z,9.80
2023-03-30T22:07:40.020Z,9.80
2023-03-30T22:10:08.736Z,9.80
2023-03-30T22:12:36.689Z,9.70
2023-03-30T22:15:04.892Z,9.80
2023-03-30T22:17:41.471Z,9.80
2023-03-30T22:20:12.364Z,9.90
2023-03-30T22:22:40.624Z,9.90
2023-03-30T22:25:09.265Z,9.90
2023-03-30T22:27:37.282Z,9.80
2023-03-30T22:30:07.400Z,9.80
2023-03-30T22:32:35.767Z,9.80
2023-03-30T22:35:04.069Z,9.80
2023-03-30T22:37:33.367Z,9.80
2023-03-30T22:40:01.357Z,9.80
2023-03-30T22:42:29.398Z,9.80
2023-03-30T22:44:57.538Z,9.70
2023-03-30T22:47:25.556Z,9.80
2023-03-30T22:49:53.669Z,9.80
2023-03-30T22:52:22.301Z,9.80
2023-03-30T22:54:51.636Z,9.80
2023-03-30T22:57:19.757Z,9.80
2023-03-30T22:59:47.777Z,9.90
2023-03-30T23:02:16.004Z,9.90
2023-03-30T23:04:48.770Z,9.90
2023-03-30T23:07:17.409Z,9.90
2023-03-30T23:09:47.433Z,9.90
2023-03-30T23:12:16.773Z,9.90
2023-03-30T23:14:44.756Z,9.90
2023-03-30T23:17:12.769Z,9.80
2023-03-30T23:19:40.706Z,9.80
2023-03-30T23:22:08.831Z,9.80
2023-03-30T23:24:36.798Z,9.80
2023-03-30T23:27:04.793Z,9.80
2023-03-30T23:29:34.026Z,9.80
2023-03-30T23:32:01.945Z,9.80
2023-03-30T23:34:29.841Z,9.80
2023-03-30T23:36:59.527Z,9.80
2023-03-30T23:39:27.696Z,9.80
2023-03-30T23:41:57.046Z,9.80
2023-03-30T23:44:25.047Z,9.80
2023-03-30T23:46:54.369Z,9.70
2023-03-30T23:49:22.631Z,9.70
2023-03-30T23:51:50.723Z,9.70
2023-03-30T23:54:18.730Z,9.70
2023-03-30T23:56:46.866Z,9.70
2023-03-30T23:59:14.950Z,9.70
